Time;durP1;ratioP1;P1;durP2;ratioP2;P2;SDS_P1;SDS_P2;PMS_P1;PMS_P2;Temp;Humidity;BMP_temperature;BMP_pressure;BME280_temperature;BME280_humidity;BME280_pressure;Samples;Min_cycle;Max_cycle;Signal;HPM_P1;HPM_P2
2022/03/23 00:01:19;;;;;;;31.73;14.52;;;;;;;;;;5044960;28;20049;-67
2022/03/23 00:03:46;;;;;;;30.50;15.45;;;;;;;;;;5041674;28;20133;-68
2022/03/23 00:06:13;;;;;;;28.48;14.50;;;;;;;;;;5042454;28;20518;-68
2022/03/23 00:08:40;;;;;;;32.28;14.30;;;;;;;;;;5030914;28;20036;-68
2022/03/23 00:11:07;;;;;;;28.58;15.05;;;;;;;;;;5019710;28;20045;-67
2022/03/23 00:13:34;;;;;;;29.80;13.63;;;;;;;;;;5039817;28;20051;-68
2022/03/23 00:16:01;;;;;;;28.00;14.32;;;;;;;;;;5014279;28;20037;-67
2022/03/23 00:18:27;;;;;;;29.67;13.82;;;;;;;;;;5037122;28;20360;-68
2022/03/23 00:20:55;;;;;;;25.70;13.15;;;;;;;;;;5033662;28;20048;-68
2022/03/23 00:23:21;;;;;;;31.63;14.60;;;;;;;;;;5028829;28;20084;-69
2022/03/23 00:25:48;;;;;;;28.67;13.88;;;;;;;;;;5038676;28;20056;-67
2022/03/23 00:28:14;;;;;;;34.22;14.80;;;;;;;;;;5034456;28;20055;-67
2022/03/23 00:30:41;;;;;;;31.67;15.68;;;;;;;;;;5052539;28;20553;-68
2022/03/23 00:33:26;;;;;;;25.25;13.80;;;;;;;;;;5038789;28;20057;-67
2022/03/23 00:35:53;;;;;;;29.80;14.88;;;;;;;;;;5024311;28;20056;-67
2022/03/23 00:38:20;;;;;;;28.85;14.73;;;;;;;;;;5046281;28;20055;-67
2022/03/23 00:40:46;;;;;;;30.77;14.57;;;;;;;;;;5039378;28;20052;-67
2022/03/23 00:43:13;;;;;;;28.55;14.85;;;;;;;;;;5040549;28;20064;-67
2022/03/23 00:45:39;;;;;;;32.45;15.07;;;;;;;;;;5034446;28;20045;-67
2022/03/23 00:48:06;;;;;;;30.13;15.55;;;;;;;;;;5055504;28;20040;-67
2022/03/23 00:50:34;;;;;;;29.80;14.82;;;;;;;;;;5030695;28;20053;-67
2022/03/23 00:53:00;;;;;;;31.67;15.30;;;;;;;;;;5039431;28;20071;-66
2022/03/23 00:55:26;;;;;;;28.92;16.70;;;;;;;;;;5030293;28;20053;-67
2022/03/23 00:57:53;;;;;;;31.02;15.77;;;;;;;;;;5042462;28;20068;-67
2022/03/23 01:00:22;;;;;;;30.45;14.43;;;;;;;;;;5043469;28;20049;-67
2022/03/23 01:02:48;;;;;;;29.42;15.52;;;;;;;;;;5036599;28;20052;-69
2022/03/23 01:05:15;;;;;;;27.00;15.95;;;;;;;;;;5027988;28;20083;-67
2022/03/23 01:07:42;;;;;;;29.17;15.48;;;;;;;;;;5033316;28;20041;-67
2022/03/23 01:10:13;;;;;;;29.33;15.15;;;;;;;;;;5044618;28;20211;-66
2022/03/23 01:12:40;;;;;;;30.55;15.25;;;;;;;;;;5036803;28;20049;-68
2022/03/23 01:15:08;;;;;;;25.90;13.98;;;;;;;;;;5029222;28;20041;-67
2022/03/23 01:17:34;;;;;;;29.10;15.35;;;;;;;;;;5042391;28;20666;-67
2022/03/23 01:20:03;;;;;;;30.13;14.80;;;;;;;;;;5034469;28;20274;-67
2022/03/23 01:22:29;;;;;;;29.40;14.55;;;;;;;;;;5044019;28;20054;-67
2022/03/23 01:24:55;;;;;;;33.30;15.23;;;;;;;;;;5036851;28;20053;-67
2022/03/23 01:27:21;;;;;;;35.67;15.20;;;;;;;;;;5024016;28;20056;-68
2022/03/23 01:29:48;;;;;;;29.15;15.10;;;;;;;;;;5030668;28;20049;-67
2022/03/23 01:32:14;;;;;;;28.05;15.32;;;;;;;;;;5046832;28;20041;-67
2022/03/23 01:34:41;;;;;;;27.65;15.73;;;;;;;;;;5022060;28;20084;-67
2022/03/23 01:37:07;;;;;;;29.65;14.38;;;;;;;;;;5030669;28;20044;-65
2022/03/23 01:39:34;;;;;;;27.52;15.40;;;;;;;;;;5046203;28;20049;-65
2022/03/23 01:42:00;;;;;;;33.10;14.18;;;;;;;;;;5042950;28;20063;-65
2022/03/23 01:44:27;;;;;;;28.70;15.05;;;;;;;;;;5050723;28;20056;-65
2022/03/23 01:47:02;;;;;;;31.42;16.95;;;;;;;;;;5035938;28;20071;-65
2022/03/23 01:49:29;;;;;;;33.85;16.55;;;;;;;;;;5058704;28;20718;-66
2022/03/23 01:51:55;;;;;;;30.88;14.98;;;;;;;;;;5049317;28;20048;-65
2022/03/23 01:54:22;;;;;;;25.25;14.07;;;;;;;;;;5049746;28;20040;-65
2022/03/23 01:56:49;;;;;;;27.38;15.00;;;;;;;;;;5048051;28;20061;-66
2022/03/23 01:59:16;;;;;;;33.08;15.43;;;;;;;;;;5038069;28;20840;-65
2022/03/23 02:01:43;;;;;;;27.67;13.88;;;;;;;;;;5047127;28;20060;-66
2022/03/23 02:04:10;;;;;;;25.35;14.18;;;;;;;;;;5045886;28;20048;-66
2022/03/23 02:06:37;;;;;;;25.70;13.73;;;;;;;;;;5053527;28;20057;-66
2022/03/23 02:09:03;;;;;;;34.58;15.50;;;;;;;;;;5045014;28;20068;-65
2022/03/23 02:11:32;;;;;;;30.60;14.73;;;;;;;;;;5039299;28;20061;-65
2022/03/23 02:14:04;;;;;;;34.83;14.85;;;;;;;;;;5044941;28;20064;-65
2022/03/23 02:16:37;;;;;;;33.05;15.30;;;;;;;;;;5032973;28;20053;-66
2022/03/23 02:19:04;;;;;;;34.45;15.38;;;;;;;;;;5054538;28;20048;-66
2022/03/23 02:21:31;;;;;;;28.15;16.02;;;;;;;;;;5043302;28;20041;-66
2022/03/23 02:23:57;;;;;;;26.98;15.20;;;;;;;;;;5049461;28;20059;-66
2022/03/23 02:26:26;;;;;;;28.30;15.18;;;;;;;;;;5046139;28;20375;-66
2022/03/23 02:28:53;;;;;;;32.08;15.98;;;;;;;;;;5036460;28;20051;-66
2022/03/23 02:31:19;;;;;;;30.17;15.50;;;;;;;;;;5036682;28;20414;-66
2022/03/23 02:33:46;;;;;;;29.98;15.43;;;;;;;;;;5033302;28;20092;-66
2022/03/23 02:36:12;;;;;;;27.30;14.65;;;;;;;;;;5048621;28;20144;-66
2022/03/23 02:38:38;;;;;;;29.45;15.27;;;;;;;;;;5043088;28;20506;-66
2022/03/23 02:41:05;;;;;;;27.58;15.00;;;;;;;;;;5026003;28;20049;-66
2022/03/23 02:43:31;;;;;;;30.55;15.85;;;;;;;;;;5041413;28;20052;-65
2022/03/23 02:45:57;;;;;;;27.95;15.73;;;;;;;;;;5039816;28;20044;-66
2022/03/23 02:48:24;;;;;;;31.20;15.27;;;;;;;;;;5040003;28;20057;-66
2022/03/23 02:50:51;;;;;;;32.97;15.50;;;;;;;;;;5040404;28;20049;-66
2022/03/23 03:01:54;;;;;;;25.90;14.60;;;;;;;;;;5036909;28;20156;-66
2022/03/23 03:04:21;;;;;;;35.33;16.02;;;;;;;;;;5047649;28;20044;-65
2022/03/23 03:06:47;;;;;;;30.55;15.38;;;;;;;;;;5046128;28;20047;-66
2022/03/23 03:09:15;;;;;;;32.13;16.98;;;;;;;;;;5046311;28;20053;-65
2022/03/23 03:11:43;;;;;;;32.95;15.80;;;;;;;;;;5036751;28;20063;-65
2022/03/23 03:14:11;;;;;;;28.23;15.45;;;;;;;;;;5042830;28;20498;-65
2022/03/23 03:16:37;;;;;;;28.52;16.52;;;;;;;;;;5053694;28;20044;-67
2022/03/23 03:19:04;;;;;;;26.52;15.15;;;;;;;;;;5037047;28;20139;-65
2022/03/23 03:21:32;;;;;;;26.90;15.82;;;;;;;;;;5049459;28;20046;-65
2022/03/23 03:23:58;;;;;;;34.33;16.98;;;;;;;;;;5048486;28;20051;-66
2022/03/23 03:26:25;;;;;;;31.27;16.48;;;;;;;;;;5038413;28;20059;-65
2022/03/23 03:28:51;;;;;;;32.47;16.88;;;;;;;;;;5053410;28;20095;-65
2022/03/23 03:31:18;;;;;;;33.53;16.60;;;;;;;;;;5042826;28;20139;-66
2022/03/23 03:33:44;;;;;;;34.70;17.73;;;;;;;;;;5052970;28;20060;-65
2022/03/23 03:36:11;;;;;;;28.98;16.73;;;;;;;;;;5036113;28;20064;-66
2022/03/23 03:38:40;;;;;;;29.20;16.58;;;;;;;;;;5043986;28;20040;-66
2022/03/23 03:41:06;;;;;;;34.83;16.15;;;;;;;;;;5051068;28;20052;-66
2022/03/23 03:43:33;;;;;;;32.35;16.52;;;;;;;;;;5041516;28;20045;-65
2022/03/23 03:46:01;;;;;;;28.63;15.80;;;;;;;;;;5047534;28;20061;-66
2022/03/23 03:48:28;;;;;;;33.37;16.77;;;;;;;;;;5049477;28;20045;-65
2022/03/23 03:50:55;;;;;;;27.13;16.43;;;;;;;;;;5042618;28;20282;-65
2022/03/23 03:53:21;;;;;;;32.38;16.50;;;;;;;;;;5027659;28;20045;-65
2022/03/23 03:55:57;;;;;;;31.50;15.98;;;;;;;;;;5046656;28;20045;-65
2022/03/23 03:58:23;;;;;;;29.13;16.38;;;;;;;;;;5050865;28;20055;-65
2022/03/23 04:00:51;;;;;;;36.40;17.55;;;;;;;;;;5043875;28;20124;-65
2022/03/23 04:03:17;;;;;;;31.15;16.33;;;;;;;;;;5051023;28;20041;-64
2022/03/23 04:05:44;;;;;;;29.65;15.80;;;;;;;;;;5045842;28;20040;-65
2022/03/23 04:08:10;;;;;;;31.42;17.05;;;;;;;;;;5039240;28;20045;-65
2022/03/23 04:10:37;;;;;;;32.92;17.05;;;;;;;;;;5040603;28;20052;-65
2022/03/23 04:13:04;;;;;;;31.50;15.88;;;;;;;;;;5047474;28;20207;-65
2022/03/23 04:15:30;;;;;;;31.08;17.17;;;;;;;;;;5054479;28;20055;-65
2022/03/23 04:17:57;;;;;;;34.67;17.33;;;;;;;;;;5046695;28;20049;-65
2022/03/23 04:20:23;;;;;;;30.63;16.52;;;;;;;;;;5047922;28;20053;-65
2022/03/23 04:22:49;;;;;;;31.05;17.38;;;;;;;;;;5031291;28;20049;-65
2022/03/23 04:25:16;;;;;;;35.72;16.92;;;;;;;;;;5052413;28;20362;-65
2022/03/23 04:27:50;;;;;;;29.25;16.85;;;;;;;;;;5044706;28;20067;-65
2022/03/23 04:30:17;;;;;;;30.83;17.92;;;;;;;;;;5048113;28;20075;-65
2022/03/23 04:32:45;;;;;;;31.67;17.45;;;;;;;;;;5046326;28;20382;-65
2022/03/23 04:35:12;;;;;;;31.60;17.25;;;;;;;;;;5037607;28;20045;-65
2022/03/23 04:37:39;;;;;;;36.67;18.40;;;;;;;;;;5031197;28;20518;-65
2022/03/23 04:40:06;;;;;;;33.20;17.23;;;;;;;;;;5038758;28;20512;-65
2022/03/23 04:42:32;;;;;;;31.63;17.95;;;;;;;;;;5046809;28;20509;-65
2022/03/23 04:44:59;;;;;;;36.65;18.30;;;;;;;;;;5036281;28;20331;-65
2022/03/23 04:47:25;;;;;;;35.70;18.15;;;;;;;;;;5041136;28;20421;-65
2022/03/23 04:49:51;;;;;;;36.63;17.38;;;;;;;;;;5029607;28;20049;-65
2022/03/23 04:52:18;;;;;;;33.22;16.88;;;;;;;;;;5041035;28;20045;-65
2022/03/23 04:54:44;;;;;;;31.67;17.23;;;;;;;;;;5043683;28;20067;-64
2022/03/23 04:57:16;;;;;;;32.20;17.65;;;;;;;;;;5036827;28;20081;-66
2022/03/23 04:59:43;;;;;;;34.05;17.25;;;;;;;;;;5044235;28;20368;-66
2022/03/23 05:02:09;;;;;;;31.73;17.15;;;;;;;;;;5034834;28;20055;-66
2022/03/23 05:04:36;;;;;;;38.47;18.70;;;;;;;;;;5046851;28;20445;-67
2022/03/23 05:07:02;;;;;;;34.28;18.25;;;;;;;;;;5044675;28;20052;-66
2022/03/23 05:09:28;;;;;;;31.75;17.30;;;;;;;;;;5037055;28;20498;-66
2022/03/23 05:11:55;;;;;;;31.85;17.67;;;;;;;;;;5052499;28;20429;-66
2022/03/23 05:14:21;;;;;;;30.42;17.10;;;;;;;;;;5030903;28;20088;-67
2022/03/23 05:16:48;;;;;;;33.35;17.67;;;;;;;;;;5045258;28;20049;-66
2022/03/23 05:19:14;;;;;;;31.23;18.48;;;;;;;;;;5043964;28;20123;-67
2022/03/23 05:21:40;;;;;;;34.55;17.70;;;;;;;;;;5046271;28;20052;-66
2022/03/23 05:24:07;;;;;;;32.30;17.60;;;;;;;;;;5053992;28;20057;-66
2022/03/23 05:26:33;;;;;;;31.38;17.70;;;;;;;;;;5038286;28;20042;-66
2022/03/23 05:28:59;;;;;;;33.25;17.75;;;;;;;;;;5045976;28;20049;-67
2022/03/23 05:31:26;;;;;;;32.65;17.27;;;;;;;;;;5037308;28;20132;-66
2022/03/23 05:33:52;;;;;;;37.22;17.25;;;;;;;;;;5049805;28;20045;-66
2022/03/23 05:36:18;;;;;;;28.83;16.92;;;;;;;;;;5040323;28;20037;-67
2022/03/23 05:38:45;;;;;;;32.38;17.48;;;;;;;;;;5051260;28;20037;-66
2022/03/23 05:41:11;;;;;;;27.90;16.27;;;;;;;;;;5040893;28;20478;-66
2022/03/23 05:43:37;;;;;;;36.28;18.17;;;;;;;;;;5020373;28;20068;-66
2022/03/23 05:46:03;;;;;;;33.20;17.75;;;;;;;;;;5041022;28;20051;-66
2022/03/23 05:48:30;;;;;;;34.28;18.38;;;;;;;;;;5041380;28;20490;-66
2022/03/23 05:51:00;;;;;;;32.95;18.42;;;;;;;;;;5052442;28;20109;-66
2022/03/23 05:53:26;;;;;;;33.47;17.90;;;;;;;;;;5041085;28;20095;-66
2022/03/23 05:55:52;;;;;;;33.58;18.52;;;;;;;;;;5028628;28;20049;-66
2022/03/23 05:58:19;;;;;;;32.55;17.40;;;;;;;;;;5033266;28;20410;-67
2022/03/23 06:00:47;;;;;;;33.22;17.35;;;;;;;;;;5028722;28;20052;-66
2022/03/23 06:03:13;;;;;;;33.72;17.98;;;;;;;;;;5039086;28;20052;-67
2022/03/23 06:05:40;;;;;;;37.10;19.08;;;;;;;;;;5011592;28;20060;-67
2022/03/23 06:08:09;;;;;;;36.75;18.17;;;;;;;;;;5038136;28;20080;-66
2022/03/23 06:10:35;;;;;;;35.30;18.67;;;;;;;;;;5031542;28;20068;-67
2022/03/23 06:13:01;;;;;;;48.33;20.40;;;;;;;;;;5050182;28;20049;-66
2022/03/23 06:15:27;;;;;;;38.13;19.02;;;;;;;;;;5048140;28;20055;-67
2022/03/23 06:17:54;;;;;;;34.35;19.42;;;;;;;;;;5040783;28;20551;-66
2022/03/23 06:20:26;;;;;;;36.75;19.38;;;;;;;;;;5055897;28;20044;-67
2022/03/23 06:22:52;;;;;;;38.22;20.75;;;;;;;;;;5029596;28;20045;-67
2022/03/23 06:25:19;;;;;;;35.78;19.23;;;;;;;;;;5048366;28;20049;-67
2022/03/23 06:27:45;;;;;;;41.88;20.90;;;;;;;;;;5044082;28;20051;-67
2022/03/23 06:30:12;;;;;;;37.33;19.50;;;;;;;;;;5048111;28;20052;-67
2022/03/23 06:32:38;;;;;;;36.35;19.40;;;;;;;;;;5048356;28;20061;-66
2022/03/23 06:35:05;;;;;;;41.55;20.83;;;;;;;;;;5044296;28;20045;-67
2022/03/23 06:37:31;;;;;;;41.70;21.23;;;;;;;;;;5040213;28;20057;-65
2022/03/23 06:39:57;;;;;;;36.38;20.13;;;;;;;;;;5040789;28;20045;-65
2022/03/23 06:42:24;;;;;;;41.67;19.75;;;;;;;;;;5046338;28;20049;-65
2022/03/23 06:44:50;;;;;;;42.65;19.95;;;;;;;;;;5051449;28;20057;-67
2022/03/23 06:47:16;;;;;;;36.63;19.35;;;;;;;;;;5057662;28;20076;-65
2022/03/23 06:49:43;;;;;;;42.65;20.05;;;;;;;;;;5043166;28;20049;-65
2022/03/23 06:52:09;;;;;;;37.30;19.30;;;;;;;;;;5023549;28;20038;-67
2022/03/23 06:54:35;;;;;;;46.53;20.83;;;;;;;;;;5051438;28;20055;-66
2022/03/23 06:57:02;;;;;;;39.25;19.80;;;;;;;;;;5045391;28;20055;-67
2022/03/23 06:59:28;;;;;;;39.45;18.45;;;;;;;;;;5061318;28;20072;-67
2022/03/23 07:01:54;;;;;;;37.72;19.67;;;;;;;;;;5046601;28;20502;-67
2022/03/23 07:04:24;;;;;;;33.60;19.77;;;;;;;;;;5048937;28;20102;-66
2022/03/23 07:06:51;;;;;;;36.40;19.38;;;;;;;;;;5045305;28;20090;-66
2022/03/23 07:09:34;;;;;;;39.63;19.52;;;;;;;;;;5034420;28;20045;-66
2022/03/23 07:12:02;;;;;;;41.95;19.98;;;;;;;;;;5046099;28;20087;-67
2022/03/23 07:14:29;;;;;;;39.13;19.90;;;;;;;;;;5032659;28;20144;-67
2022/03/23 07:16:55;;;;;;;37.20;19.23;;;;;;;;;;5043559;28;20048;-67
2022/03/23 07:19:22;;;;;;;46.83;20.20;;;;;;;;;;5036635;28;20289;-67
2022/03/23 07:21:49;;;;;;;33.83;18.58;;;;;;;;;;5035935;28;20053;-66
2022/03/23 07:24:15;;;;;;;40.67;20.15;;;;;;;;;;5045464;28;20040;-67
2022/03/23 07:26:42;;;;;;;36.55;19.30;;;;;;;;;;5044038;28;20049;-66
2022/03/23 07:29:20;;;;;;;42.58;20.17;;;;;;;;;;5065043;28;20053;-66
2022/03/23 07:31:47;;;;;;;43.08;21.13;;;;;;;;;;5043762;28;20051;-66
2022/03/23 07:34:18;;;;;;;41.58;20.38;;;;;;;;;;5030078;28;20486;-67
2022/03/23 07:36:46;;;;;;;40.85;20.77;;;;;;;;;;5038479;28;20107;-66
2022/03/23 07:39:16;;;;;;;37.73;21.00;;;;;;;;;;5043293;28;20045;-66
2022/03/23 07:41:43;;;;;;;43.20;22.02;;;;;;;;;;5051113;28;20045;-67
2022/03/23 07:44:09;;;;;;;52.63;20.90;;;;;;;;;;5039384;28;20045;-66
2022/03/23 07:46:36;;;;;;;40.78;23.25;;;;;;;;;;5042997;28;20056;-66
2022/03/23 07:49:02;;;;;;;39.45;22.40;;;;;;;;;;5032035;28;20585;-66
2022/03/23 07:51:28;;;;;;;44.42;21.73;;;;;;;;;;5058468;28;20041;-66
2022/03/23 07:53:55;;;;;;;44.03;23.13;;;;;;;;;;5041434;28;20618;-65
2022/03/23 07:56:21;;;;;;;44.78;22.42;;;;;;;;;;5040185;28;20779;-65
2022/03/23 07:58:48;;;;;;;35.50;19.73;;;;;;;;;;5045618;28;20049;-66
2022/03/23 08:01:15;;;;;;;46.78;22.95;;;;;;;;;;5014122;28;20045;-68
2022/03/23 08:03:42;;;;;;;36.37;20.37;;;;;;;;;;5028218;28;20133;-66
2022/03/23 08:06:13;;;;;;;39.53;21.15;;;;;;;;;;5023343;28;20049;-66
2022/03/23 08:08:39;;;;;;;43.55;21.38;;;;;;;;;;5031114;28;20682;-66
2022/03/23 08:11:06;;;;;;;30.67;16.45;;;;;;;;;;5023126;28;20049;-66
2022/03/23 08:13:32;;;;;;;36.15;19.63;;;;;;;;;;5033357;28;20597;-66
2022/03/23 08:16:00;;;;;;;35.72;19.80;;;;;;;;;;5035982;28;20052;-66
2022/03/23 08:18:27;;;;;;;30.73;17.93;;;;;;;;;;5027156;28;20052;-66
2022/03/23 08:20:53;;;;;;;31.25;16.83;;;;;;;;;;5038102;28;20125;-66
2022/03/23 08:23:20;;;;;;;35.55;19.98;;;;;;;;;;5035429;28;20125;-66
2022/03/23 08:25:46;;;;;;;33.90;19.40;;;;;;;;;;5045716;28;20056;-66
2022/03/23 08:28:17;;;;;;;39.58;20.80;;;;;;;;;;5033315;28;20745;-67
2022/03/23 08:30:44;;;;;;;42.78;20.45;;;;;;;;;;5034572;28;20158;-67
2022/03/23 08:33:10;;;;;;;35.70;18.98;;;;;;;;;;5039349;28;20422;-67
2022/03/23 08:35:37;;;;;;;36.17;19.23;;;;;;;;;;5030887;28;20042;-66
2022/03/23 08:38:04;;;;;;;35.58;18.88;;;;;;;;;;5050780;28;20481;-67
2022/03/23 08:40:30;;;;;;;28.23;17.02;;;;;;;;;;5026106;28;20075;-66
2022/03/23 08:42:58;;;;;;;36.15;19.08;;;;;;;;;;5035148;28;20079;-66
2022/03/23 08:45:25;;;;;;;40.38;21.20;;;;;;;;;;5025959;28;20594;-66
2022/03/23 08:47:52;;;;;;;34.58;19.05;;;;;;;;;;5034067;28;20053;-66
2022/03/23 08:50:18;;;;;;;35.53;19.88;;;;;;;;;;5022852;28;20059;-66
2022/03/23 08:52:44;;;;;;;32.83;18.05;;;;;;;;;;5034037;28;20057;-66
2022/03/23 08:55:19;;;;;;;33.50;19.60;;;;;;;;;;5021379;28;20049;-65
2022/03/23 08:57:46;;;;;;;33.42;18.92;;;;;;;;;;5032333;28;20123;-65
2022/03/23 09:00:12;;;;;;;37.30;18.80;;;;;;;;;;5052599;28;20041;-66
2022/03/23 09:02:39;;;;;;;34.83;19.63;;;;;;;;;;5045919;28;20048;-66
2022/03/23 09:05:09;;;;;;;40.97;21.50;;;;;;;;;;5043426;28;20052;-65
2022/03/23 09:07:37;;;;;;;36.00;21.13;;;;;;;;;;5040849;28;20054;-65
2022/03/23 09:10:07;;;;;;;34.72;20.92;;;;;;;;;;5035460;28;20048;-65
2022/03/23 09:12:33;;;;;;;38.80;21.80;;;;;;;;;;5043671;28;20855;-65
2022/03/23 09:15:00;;;;;;;33.35;21.38;;;;;;;;;;5041846;28;20076;-65
2022/03/23 09:17:26;;;;;;;30.90;19.77;;;;;;;;;;5048472;28;20076;-65
2022/03/23 09:19:54;;;;;;;33.78;19.25;;;;;;;;;;5031084;28;20816;-65
2022/03/23 09:22:21;;;;;;;36.55;20.98;;;;;;;;;;5051864;28;20135;-65
2022/03/23 09:24:47;;;;;;;35.03;21.42;;;;;;;;;;5035107;28;20506;-65
2022/03/23 09:27:14;;;;;;;36.10;20.50;;;;;;;;;;5036328;28;20052;-65
2022/03/23 09:29:40;;;;;;;28.25;18.50;;;;;;;;;;5035626;28;20099;-66
2022/03/23 09:32:12;;;;;;;36.85;19.77;;;;;;;;;;5044026;28;20080;-66
2022/03/23 09:34:39;;;;;;;38.70;20.65;;;;;;;;;;5054144;28;20041;-66
2022/03/23 09:39:51;;;;;;;36.05;20.52;;;;;;;;;;5032366;28;20046;-66
2022/03/23 09:42:18;;;;;;;33.40;21.17;;;;;;;;;;5045047;28;20052;-66
2022/03/23 09:44:45;;;;;;;31.83;17.73;;;;;;;;;;5036510;28;20061;-65
2022/03/23 09:47:12;;;;;;;39.30;21.38;;;;;;;;;;5039434;28;20052;-66
2022/03/23 09:49:38;;;;;;;38.10;20.13;;;;;;;;;;5039200;28;20053;-66
2022/03/23 09:52:05;;;;;;;31.38;20.48;;;;;;;;;;5040870;28;20057;-66
2022/03/23 09:54:31;;;;;;;36.92;20.00;;;;;;;;;;5033932;28;20561;-66
2022/03/23 09:56:58;;;;;;;34.95;21.33;;;;;;;;;;5040523;28;20053;-66
2022/03/23 09:59:24;;;;;;;36.80;23.38;;;;;;;;;;5036269;28;20148;-65
2022/03/23 10:01:50;;;;;;;40.22;21.88;;;;;;;;;;5038144;28;20053;-66
2022/03/23 10:04:20;;;;;;;40.70;22.45;;;;;;;;;;5042529;28;20051;-66
2022/03/23 10:07:05;;;;;;;35.70;22.00;;;;;;;;;;5029475;28;20064;-66
2022/03/23 10:09:50;;;;;;;32.53;21.02;;;;;;;;;;5036975;28;20049;-66
2022/03/23 10:12:35;;;;;;;49.22;22.65;;;;;;;;;;5033651;28;20513;-67
2022/03/23 10:15:22;;;;;;;43.13;21.92;;;;;;;;;;5041051;28;20057;-67
2022/03/23 10:17:58;;;;;;;38.97;21.27;;;;;;;;;;5022805;28;20076;-67
2022/03/23 10:20:24;;;;;;;32.15;20.38;;;;;;;;;;5031866;28;20469;-67
2022/03/23 10:22:52;;;;;;;37.17;22.60;;;;;;;;;;5022560;28;20056;-66
2022/03/23 10:25:19;;;;;;;35.00;22.60;;;;;;;;;;5023824;28;20049;-67
2022/03/23 10:27:46;;;;;;;36.35;22.75;;;;;;;;;;5038399;28;20048;-67
2022/03/23 10:30:14;;;;;;;41.60;22.33;;;;;;;;;;5040966;28;20050;-67
2022/03/23 10:32:43;;;;;;;30.70;19.40;;;;;;;;;;5029859;28;20044;-67
2022/03/23 10:35:10;;;;;;;34.80;22.05;;;;;;;;;;5025000;28;20052;-67
2022/03/23 10:37:36;;;;;;;35.58;23.10;;;;;;;;;;5035133;28;20064;-67
2022/03/23 10:40:07;;;;;;;36.78;23.98;;;;;;;;;;5039235;28;20041;-67
2022/03/23 10:42:34;;;;;;;40.58;24.55;;;;;;;;;;5036617;28;21120;-67
2022/03/23 10:45:09;;;;;;;38.15;23.38;;;;;;;;;;5047385;28;20071;-67
2022/03/23 10:47:36;;;;;;;39.03;25.05;;;;;;;;;;5035557;28;20425;-67
2022/03/23 10:50:07;;;;;;;38.58;23.23;;;;;;;;;;5038539;28;20445;-67
2022/03/23 10:52:33;;;;;;;41.28;23.63;;;;;;;;;;5036672;28;20055;-67
2022/03/23 10:55:00;;;;;;;38.45;24.75;;;;;;;;;;5041266;28;20051;-67
2022/03/23 10:57:55;;;;;;;44.15;24.67;;;;;;;;;;5039812;28;20049;-68
2022/03/23 11:00:38;;;;;;;37.33;23.60;;;;;;;;;;5031090;28;20040;-67
2022/03/23 11:03:05;;;;;;;39.30;24.05;;;;;;;;;;5031280;28;20041;-67
2022/03/23 11:05:34;;;;;;;36.10;23.80;;;;;;;;;;5032863;28;20605;-67
2022/03/23 11:08:11;;;;;;;36.83;24.55;;;;;;;;;;5041635;28;20048;-67
2022/03/23 11:16:12;;;;;;;35.00;23.70;;;;;;;;;;5029017;28;20053;-67
2022/03/23 11:18:39;;;;;;;35.55;24.33;;;;;;;;;;5036031;28;20677;-67
2022/03/23 11:21:06;;;;;;;38.10;25.55;;;;;;;;;;5026848;28;20049;-67
2022/03/23 11:23:35;;;;;;;36.10;23.65;;;;;;;;;;5038453;28;20061;-67
2022/03/23 11:26:11;;;;;;;35.28;24.42;;;;;;;;;;5043634;28;20053;-68
2022/03/23 11:28:42;;;;;;;35.58;24.95;;;;;;;;;;5032180;28;20277;-67
2022/03/23 11:31:10;;;;;;;35.28;21.63;;;;;;;;;;5035553;28;20049;-67
2022/03/23 11:33:37;;;;;;;41.00;25.85;;;;;;;;;;5039039;28;20052;-68
2022/03/23 11:36:07;;;;;;;38.17;25.50;;;;;;;;;;5044181;28;20090;-68
2022/03/23 11:38:34;;;;;;;31.90;24.13;;;;;;;;;;5027087;28;20057;-67
2022/03/23 11:41:01;;;;;;;35.72;25.52;;;;;;;;;;5043182;28;20501;-68
2022/03/23 11:43:33;;;;;;;30.55;22.48;;;;;;;;;;5035508;28;20048;-67
2022/03/23 11:46:13;;;;;;;36.38;25.40;;;;;;;;;;5038165;28;20192;-67
2022/03/23 11:48:42;;;;;;;36.97;24.85;;;;;;;;;;5041601;28;20049;-67
2022/03/23 11:51:24;;;;;;;38.63;25.83;;;;;;;;;;5026724;28;20056;-67
2022/03/23 11:53:54;;;;;;;35.13;26.25;;;;;;;;;;5038202;28;20132;-67
2022/03/23 11:56:27;;;;;;;35.53;24.75;;;;;;;;;;5033078;28;20040;-67
2022/03/23 11:58:54;;;;;;;37.78;26.65;;;;;;;;;;5029859;28;20052;-67
2022/03/23 12:01:20;;;;;;;33.35;26.08;;;;;;;;;;5036860;28;20045;-67
2022/03/23 12:03:51;;;;;;;39.17;26.10;;;;;;;;;;5040913;28;20049;-67
2022/03/23 12:06:21;;;;;;;36.90;24.23;;;;;;;;;;5042929;28;20079;-67
2022/03/23 12:08:50;;;;;;;32.67;23.27;;;;;;;;;;5021429;28;20049;-67
2022/03/23 12:11:29;;;;;;;38.00;23.88;;;;;;;;;;5029610;28;20049;-67
2022/03/23 12:13:56;;;;;;;32.60;23.73;;;;;;;;;;5034114;28;20139;-67
2022/03/23 12:16:42;;;;;;;35.28;21.77;;;;;;;;;;5049109;28;20515;-67
2022/03/23 12:19:32;;;;;;;32.80;23.48;;;;;;;;;;5031915;28;20059;-67
2022/03/23 12:21:58;;;;;;;35.92;26.58;;;;;;;;;;5033358;28;20037;-67
2022/03/23 12:24:34;;;;;;;32.83;23.67;;;;;;;;;;5024029;28;20464;-67
2022/03/23 12:27:07;;;;;;;31.73;22.73;;;;;;;;;;5031038;28;20732;-68
2022/03/23 12:29:36;;;;;;;35.15;24.63;;;;;;;;;;5043411;28;20040;-67
2022/03/23 12:32:05;;;;;;;34.25;22.23;;;;;;;;;;5023289;28;20139;-67
2022/03/23 12:34:32;;;;;;;35.90;23.48;;;;;;;;;;5038879;28;20509;-68
2022/03/23 12:37:09;;;;;;;34.67;22.88;;;;;;;;;;5031880;28;20056;-67
2022/03/23 12:39:39;;;;;;;32.30;23.52;;;;;;;;;;5035369;28;20233;-67
2022/03/23 12:42:12;;;;;;;38.92;23.27;;;;;;;;;;5055825;28;20049;-68
2022/03/23 12:44:49;;;;;;;33.30;22.80;;;;;;;;;;5048950;28;20771;-68
2022/03/23 12:47:15;;;;;;;34.03;22.58;;;;;;;;;;5029966;28;20052;-67
2022/03/23 12:58:10;;;;;;;36.57;22.27;;;;;;;;;;5044945;28;20037;-68
2022/03/23 13:00:38;;;;;;;29.90;20.00;;;;;;;;;;5027055;28;20041;-68
2022/03/23 13:03:25;;;;;;;34.67;20.80;;;;;;;;;;5035936;28;20053;-67
2022/03/23 13:05:58;;;;;;;41.17;20.83;;;;;;;;;;5034756;28;20052;-67
2022/03/23 13:08:35;;;;;;;34.15;20.50;;;;;;;;;;5044044;28;20053;-67
2022/03/23 13:11:03;;;;;;;32.03;21.02;;;;;;;;;;5033775;28;20048;-68
2022/03/23 13:13:41;;;;;;;30.33;19.38;;;;;;;;;;5023650;28;20317;-67
2022/03/23 13:16:08;;;;;;;33.20;20.67;;;;;;;;;;5036860;28;20052;-67
2022/03/23 13:18:38;;;;;;;26.52;15.95;;;;;;;;;;5041893;28;20049;-68
2022/03/23 13:21:10;;;;;;;32.42;16.08;;;;;;;;;;5032712;28;20140;-68
2022/03/23 13:23:43;;;;;;;37.20;19.70;;;;;;;;;;5039593;28;20041;-67
2022/03/23 13:26:35;;;;;;;31.17;18.90;;;;;;;;;;5045068;28;20045;-67
2022/03/23 13:29:05;;;;;;;35.00;20.05;;;;;;;;;;5031996;28;20502;-70
2022/03/23 13:31:34;;;;;;;27.88;17.63;;;;;;;;;;5027255;28;20045;-68
2022/03/23 13:34:03;;;;;;;32.33;17.73;;;;;;;;;;5026615;28;20427;-68
2022/03/23 13:36:32;;;;;;;45.15;30.30;;;;;;;;;;5037249;28;20590;-69
2022/03/23 13:38:58;;;;;;;23.00;14.48;;;;;;;;;;5024860;28;20606;-69
2022/03/23 13:44:11;;;;;;;23.30;13.45;;;;;;;;;;5032873;28;20075;-69
2022/03/23 13:46:40;;;;;;;20.55;11.13;;;;;;;;;;5033506;28;20055;-69
2022/03/23 13:49:10;;;;;;;29.08;12.15;;;;;;;;;;5036886;28;20478;-69
2022/03/23 13:51:39;;;;;;;16.05;8.15;;;;;;;;;;5035063;28;20132;-69
2022/03/23 13:54:06;;;;;;;54.53;9.80;;;;;;;;;;5047397;28;20060;-68
2022/03/23 13:56:35;;;;;;;23.50;7.43;;;;;;;;;;5044447;28;20061;-69
2022/03/23 13:59:02;;;;;;;16.35;6.85;;;;;;;;;;5046491;28;20087;-69
2022/03/23 14:01:29;;;;;;;17.02;8.90;;;;;;;;;;5039063;28;20060;-69
2022/03/23 14:04:00;;;;;;;17.60;8.05;;;;;;;;;;5037211;28;20130;-69
2022/03/23 14:06:28;;;;;;;16.17;8.15;;;;;;;;;;5044314;28;20065;-68
2022/03/23 14:08:56;;;;;;;18.88;9.93;;;;;;;;;;5027870;28;20134;-68
2022/03/23 14:14:12;;;;;;;21.52;9.40;;;;;;;;;;5040966;28;20640;-68
2022/03/23 14:16:39;;;;;;;18.67;9.02;;;;;;;;;;5037997;28;20049;-69
2022/03/23 14:19:07;;;;;;;20.55;9.48;;;;;;;;;;5044356;28;20049;-69
2022/03/23 14:21:34;;;;;;;18.45;9.55;;;;;;;;;;5039020;28;20049;-69
2022/03/23 14:24:00;;;;;;;22.98;10.20;;;;;;;;;;5045607;28;20390;-69
2022/03/23 14:26:27;;;;;;;19.85;9.63;;;;;;;;;;5028990;28;20403;-69
2022/03/23 14:28:53;;;;;;;18.92;10.02;;;;;;;;;;5043525;28;20121;-70
2022/03/23 14:31:21;;;;;;;23.20;9.70;;;;;;;;;;5041072;28;20052;-69
2022/03/23 14:33:47;;;;;;;;;;;;;;;;;;5033360;28;20045;-69
2022/03/23 14:36:26;;;;;;;19.95;9.88;;;;;;;;;;5039318;28;19932;-69
2022/03/23 14:38:53;;;;;;;18.17;9.60;;;;;;;;;;5031707;28;20132;-69
2022/03/23 14:41:19;;;;;;;18.80;9.48;;;;;;;;;;5033417;28;20041;-69
2022/03/23 14:43:49;;;;;;;22.63;9.93;;;;;;;;;;5028147;28;20414;-69
2022/03/23 14:46:20;;;;;;;18.15;10.05;;;;;;;;;;5053526;28;20422;-69
2022/03/23 14:49:04;;;;;;;25.13;9.98;;;;;;;;;;5038000;28;20103;-69
2022/03/23 14:51:32;;;;;;;15.55;8.85;;;;;;;;;;5034032;28;20056;-70
2022/03/23 14:53:59;;;;;;;16.80;8.52;;;;;;;;;;5035882;28;20446;-69
2022/03/23 14:56:26;;;;;;;16.05;8.68;;;;;;;;;;5029727;28;20139;-69